createdAt,value
2022-12-31T00:00:08.866Z,70.95
2022-12-31T00:02:36.301Z,71.60
2022-12-31T00:05:04.531Z,71.15
2022-12-31T00:09:57.729Z,70.63
2022-12-31T00:12:25.461Z,70.24
2022-12-31T00:14:52.097Z,69.78
2022-12-31T00:17:18.839Z,69.22
2022-12-31T00:19:45.469Z,69.36
2022-12-31T00:22:12.115Z,69.33
2022-12-31T00:24:38.758Z,69.39
2022-12-31T00:27:05.384Z,69.34
2022-12-31T00:29:32.006Z,69.02
2022-12-31T00:31:58.594Z,69.18
2022-12-31T00:34:25.238Z,69.21
2022-12-31T00:36:52.766Z,68.80
2022-12-31T00:39:19.391Z,68.66
2022-12-31T00:41:46.109Z,68.16
2022-12-31T00:44:12.982Z,68.03
2022-12-31T00:49:05.467Z,67.54
2022-12-31T00:51:32.240Z,67.44
2022-12-31T00:53:59.185Z,67.13
2022-12-31T00:56:29.537Z,67.27
2022-12-31T00:58:57.203Z,67.21
2022-12-31T01:01:29.534Z,67.44
2022-12-31T01:04:00.954Z,66.96
2022-12-31T01:06:27.678Z,67.07
2022-12-31T01:08:55.778Z,66.39
2022-12-31T01:11:24.062Z,66.21
2022-12-31T01:13:50.703Z,66.71
2022-12-31T01:16:19.746Z,66.63
2022-12-31T01:18:46.498Z,66.68
2022-12-31T01:21:13.957Z,66.76
2022-12-31T01:23:41.193Z,66.55
2022-12-31T01:26:10.328Z,66.18
2022-12-31T01:28:36.956Z,66.35
2022-12-31T01:31:06.138Z,66.44
2022-12-31T01:33:32.907Z,66.15
2022-12-31T01:36:05.654Z,66.11
2022-12-31T01:38:33.777Z,66.15
2022-12-31T01:41:00.749Z,66.06
2022-12-31T01:43:48.898Z,65.99
2022-12-31T01:46:25.226Z,65.89
2022-12-31T01:48:54.548Z,65.83
2022-12-31T01:51:21.977Z,66.41
2022-12-31T01:53:50.413Z,66.21
2022-12-31T01:56:19.762Z,66.05
2022-12-31T01:58:50.960Z,65.85
2022-12-31T02:01:31.048Z,65.69
2022-12-31T02:03:58.897Z,65.63
2022-12-31T02:06:54.100Z,65.36
2022-12-31T02:09:21.149Z,65.76
2022-12-31T02:11:48.047Z,65.40
2022-12-31T02:14:26.723Z,65.63
2022-12-31T02:17:26.580Z,65.06
2022-12-31T02:20:25.420Z,65.29
2022-12-31T02:23:02.022Z,65.11
2022-12-31T02:25:59.975Z,64.79
2022-12-31T02:28:44.685Z,65.24
2022-12-31T02:31:47.322Z,64.92
2022-12-31T02:34:27.741Z,64.88
2022-12-31T02:36:58.018Z,64.60
2022-12-31T02:39:24.796Z,64.36
2022-12-31T02:41:51.893Z,64.71
2022-12-31T02:44:27.016Z,64.54
2022-12-31T02:46:59.347Z,64.40
2022-12-31T02:49:41.536Z,64.06
2022-12-31T02:52:18.031Z,64.20
2022-12-31T02:54:52.853Z,64.41
2022-12-31T02:57:31.637Z,63.87
2022-12-31T03:00:22.250Z,64.13
2022-12-31T03:02:51.742Z,64.61
2022-12-31T03:05:22.900Z,64.16
2022-12-31T03:07:49.514Z,64.12
2022-12-31T03:10:17.122Z,63.76
2022-12-31T03:12:47.549Z,63.88
2022-12-31T03:15:21.958Z,64.15
2022-12-31T03:18:13.842Z,63.12
2022-12-31T03:21:09.354Z,63.57
2022-12-31T03:23:39.835Z,63.71
2022-12-31T03:26:11.568Z,63.90
2022-12-31T03:28:40.914Z,63.68
2022-12-31T03:31:08.478Z,63.68
2022-12-31T03:33:37.667Z,62.97
2022-12-31T03:36:06.759Z,63.09
2022-12-31T03:38:33.607Z,63.07
2022-12-31T03:41:00.220Z,63.17
2022-12-31T03:43:26.831Z,62.97
2022-12-31T03:45:54.780Z,63.16
2022-12-31T03:48:24.519Z,62.58
2022-12-31T03:50:51.532Z,63.18
2022-12-31T03:53:18.409Z,63.05
2022-12-31T03:55:45.068Z,62.53
2022-12-31T03:58:11.783Z,62.38
2022-12-31T04:00:38.549Z,62.89
2022-12-31T04:03:06.248Z,62.14
2022-12-31T04:05:33.781Z,61.67
2022-12-31T04:08:00.598Z,62.27
2022-12-31T04:10:27.205Z,61.54
2022-12-31T04:12:53.814Z,61.75
2022-12-31T04:15:21.580Z,61.91
2022-12-31T04:17:48.899Z,61.61
2022-12-31T04:20:16.233Z,61.59
2022-12-31T04:22:42.886Z,61.59
2022-12-31T04:25:11.708Z,61.36
2022-12-31T04:27:43.771Z,61.59
2022-12-31T04:30:12.365Z,61.67
2022-12-31T04:32:39.382Z,61.54
2022-12-31T04:35:06.660Z,61.81
2022-12-31T04:37:33.347Z,61.21
2022-12-31T04:40:05.505Z,61.53
2022-12-31T04:42:33.239Z,61.04
2022-12-31T04:44:59.874Z,61.27
2022-12-31T04:47:26.546Z,61.06
2022-12-31T04:49:53.200Z,61.36
2022-12-31T04:52:19.839Z,60.84
2022-12-31T04:54:46.495Z,60.80
2022-12-31T04:57:13.130Z,61.44
2022-12-31T04:59:39.880Z,61.00
2022-12-31T05:02:06.735Z,60.86
2022-12-31T05:04:33.585Z,60.69
2022-12-31T05:07:00.254Z,60.65
2022-12-31T05:09:28.410Z,60.36
2022-12-31T05:11:55.075Z,60.31
2022-12-31T05:14:21.828Z,60.41
2022-12-31T05:16:48.476Z,60.47
2022-12-31T05:19:15.295Z,60.04
2022-12-31T05:21:41.930Z,60.35
2022-12-31T05:24:08.802Z,60.40
2022-12-31T05:26:35.595Z,60.30
2022-12-31T05:29:02.271Z,60.54
2022-12-31T05:31:28.885Z,60.61
2022-12-31T05:33:55.536Z,60.97
2022-12-31T05:36:22.159Z,60.76
2022-12-31T05:38:48.789Z,60.87
2022-12-31T05:41:15.418Z,60.81
2022-12-31T05:43:42.038Z,61.08
2022-12-31T05:46:08.974Z,60.60
2022-12-31T05:48:35.713Z,60.82
2022-12-31T05:51:02.402Z,60.92
2022-12-31T05:53:29.126Z,61.08
2022-12-31T05:55:55.742Z,60.81
2022-12-31T05:58:22.362Z,60.72
2022-12-31T06:00:48.974Z,60.99
2022-12-31T06:03:15.676Z,61.18
2022-12-31T06:05:43.304Z,61.31
2022-12-31T06:08:11.527Z,61.24
2022-12-31T06:10:38.788Z,61.91
2022-12-31T06:13:05.425Z,61.65
2022-12-31T06:15:32.302Z,61.31
2022-12-31T06:21:34.669Z,61.53
2022-12-31T06:24:01.303Z,61.75
2022-12-31T06:26:28.193Z,61.48
2022-12-31T06:28:54.855Z,61.60
2022-12-31T06:31:21.584Z,61.63
2022-12-31T06:33:48.224Z,61.81
2022-12-31T06:36:16.299Z,61.83
2022-12-31T06:38:44.193Z,61.95
2022-12-31T06:41:13.509Z,62.03
2022-12-31T06:43:41.131Z,62.04
2022-12-31T06:46:10.804Z,62.07
2022-12-31T06:48:38.119Z,62.22
2022-12-31T06:51:11.866Z,62.08
2022-12-31T06:53:43.929Z,62.38
2022-12-31T06:56:15.840Z,62.26
2022-12-31T06:58:43.051Z,62.09
2022-12-31T07:01:49.429Z,61.52
2022-12-31T07:04:45.626Z,61.38
2022-12-31T07:07:30.478Z,61.86
2022-12-31T07:10:17.759Z,62.27
2022-12-31T07:12:54.849Z,62.63
2022-12-31T07:15:50.254Z,62.01
2022-12-31T07:18:45.688Z,62.04
2022-12-31T07:21:18.675Z,62.48
2022-12-31T07:23:48.318Z,62.61
2022-12-31T07:26:36.814Z,62.25
2022-12-31T07:29:12.019Z,62.65
2022-12-31T07:31:50.521Z,62.49
2022-12-31T07:34:32.027Z,62.47
2022-12-31T07:36:58.656Z,62.66
2022-12-31T07:39:37.452Z,62.53
2022-12-31T07:42:22.153Z,62.57
2022-12-31T07:44:56.390Z,62.78
2022-12-31T07:47:25.700Z,62.49
2022-12-31T07:49:53.201Z,62.68
2022-12-31T07:52:20.708Z,62.64
2022-12-31T07:54:47.848Z,62.34
2022-12-31T07:57:17.347Z,62.34
2022-12-31T07:59:50.143Z,62.39
2022-12-31T08:02:25.809Z,62.51
2022-12-31T08:05:18.510Z,62.45
2022-12-31T08:08:12.377Z,62.31
2022-12-31T08:10:44.840Z,62.29
2022-12-31T08:13:12.547Z,61.80
2022-12-31T08:15:40.697Z,61.75
2022-12-31T08:18:08.399Z,61.86
2022-12-31T08:20:46.186Z,61.81
2022-12-31T08:23:36.726Z,61.28
2022-12-31T08:26:52.615Z,61.25
2022-12-31T08:29:40.053Z,61.17
2022-12-31T08:32:46.318Z,61.41
2022-12-31T08:35:20.660Z,61.02
2022-12-31T08:37:57.507Z,61.25
2022-12-31T08:40:38.365Z,61.09
2022-12-31T08:43:38.877Z,60.76
2022-12-31T08:46:13.022Z,60.68
2022-12-31T08:48:42.305Z,60.86
2022-12-31T08:51:21.537Z,60.19
2022-12-31T08:53:48.607Z,60.89
2022-12-31T08:56:50.181Z,61.20
2022-12-31T08:59:35.701Z,60.78
2022-12-31T09:02:29.859Z,60.91
2022-12-31T09:05:17.909Z,60.78
2022-12-31T09:08:10.513Z,60.06
2022-12-31T09:10:55.721Z,59.79
2022-12-31T09:13:32.253Z,60.36
2022-12-31T09:16:12.983Z,59.82
2022-12-31T09:18:42.269Z,59.54
2022-12-31T09:21:12.456Z,59.98
2022-12-31T09:23:40.038Z,59.79
2022-12-31T09:26:15.724Z,59.92
2022-12-31T09:29:05.475Z,59.55
2022-12-31T09:31:46.018Z,59.40
2022-12-31T09:34:22.523Z,59.74
2022-12-31T09:36:56.822Z,59.19
2022-12-31T09:39:41.101Z,59.21
2022-12-31T09:42:16.409Z,59.27
2022-12-31T09:45:03.055Z,58.58
2022-12-31T09:47:57.196Z,59.28
2022-12-31T09:50:52.796Z,58.22
2022-12-31T09:53:27.027Z,58.72
2022-12-31T09:56:04.356Z,58.29
2022-12-31T09:58:51.086Z,57.07
2022-12-31T10:01:36.069Z,58.04
2022-12-31T10:04:29.271Z,57.09
2022-12-31T10:07:09.652Z,57.97
2022-12-31T10:09:52.206Z,56.08
2022-12-31T10:12:34.613Z,56.22
2022-12-31T10:15:19.737Z,55.71
2022-12-31T10:17:58.836Z,55.17
2022-12-31T10:20:50.294Z,56.65
2022-12-31T10:23:52.377Z,54.71
2022-12-31T10:26:57.456Z,54.63
2022-12-31T10:29:50.225Z,53.05
2022-12-31T10:32:31.154Z,54.61
2022-12-31T10:35:12.821Z,54.61
2022-12-31T10:38:02.993Z,54.88
2022-12-31T10:40:29.586Z,55.32
2022-12-31T10:43:33.932Z,53.65
2022-12-31T10:46:23.251Z,55.25
2022-12-31T10:48:58.917Z,54.72
2022-12-31T10:52:02.325Z,53.03
2022-12-31T10:54:55.644Z,52.40
2022-12-31T10:57:46.210Z,52.46
2022-12-31T11:00:12.886Z,53.76
2022-12-31T11:03:00.539Z,54.13
2022-12-31T11:06:08.455Z,53.33
2022-12-31T11:08:53.795Z,54.87
2022-12-31T11:11:43.035Z,54.56
2022-12-31T11:14:20.398Z,53.78
2022-12-31T11:17:24.333Z,54.47
2022-12-31T11:20:10.198Z,54.42
2022-12-31T11:22:54.296Z,53.81
2022-12-31T11:25:22.984Z,54.79
2022-12-31T11:28:17.491Z,55.26
2022-12-31T11:31:15.797Z,55.84
2022-12-31T11:33:50.627Z,56.55
2022-12-31T11:36:36.244Z,57.01
2022-12-31T11:39:35.540Z,57.14
2022-12-31T11:42:14.471Z,57.94
2022-12-31T11:45:04.037Z,57.66
2022-12-31T11:48:03.989Z,57.94
2022-12-31T11:50:40.238Z,58.02
2022-12-31T11:53:16.858Z,57.77
2022-12-31T11:56:11.432Z,56.85
2022-12-31T11:58:38.759Z,57.52
2022-12-31T12:01:17.855Z,57.56
2022-12-31T12:03:45.355Z,57.88
2022-12-31T12:06:14.869Z,57.69
2022-12-31T12:08:42.694Z,56.33
2022-12-31T12:11:28.020Z,56.48
2022-12-31T12:13:54.683Z,56.93
2022-12-31T12:16:23.558Z,55.79
2022-12-31T12:19:02.043Z,56.34
2022-12-31T12:21:28.985Z,56.75
2022-12-31T12:24:04.675Z,56.51
2022-12-31T12:26:43.228Z,56.30
2022-12-31T12:29:21.560Z,56.88
2022-12-31T12:31:58.309Z,56.27
2022-12-31T12:34:36.526Z,56.40
2022-12-31T12:37:04.228Z,56.47
2022-12-31T12:39:33.789Z,56.30
2022-12-31T12:42:01.025Z,56.25
2022-12-31T12:44:27.653Z,55.98
2022-12-31T12:46:55.594Z,56.21
2022-12-31T12:49:32.349Z,56.19
2022-12-31T12:52:23.733Z,56.17
2022-12-31T12:54:59.384Z,56.92
2022-12-31T12:57:48.840Z,56.55
2022-12-31T13:00:20.462Z,56.80
2022-12-31T13:03:00.655Z,56.87
2022-12-31T13:05:37.500Z,57.19
2022-12-31T13:08:22.727Z,57.51
2022-12-31T13:11:15.508Z,57.78
2022-12-31T13:13:57.461Z,58.13
2022-12-31T13:16:48.560Z,58.94
2022-12-31T13:19:41.975Z,58.91
2022-12-31T13:22:19.755Z,58.70
2022-12-31T13:24:55.647Z,58.84
2022-12-31T13:27:33.172Z,58.98
2022-12-31T13:30:02.751Z,59.36
2022-12-31T13:32:43.152Z,59.06
2022-12-31T13:35:23.603Z,59.16
2022-12-31T13:37:53.583Z,59.23
2022-12-31T13:40:27.693Z,59.68
2022-12-31T13:43:00.505Z,59.42
2022-12-31T13:45:34.411Z,59.39
2022-12-31T13:48:08.292Z,59.60
2022-12-31T13:50:51.867Z,60.11
2022-12-31T13:53:52.626Z,60.47
2022-12-31T13:56:27.325Z,60.01
2022-12-31T13:59:01.648Z,59.92
2022-12-31T14:01:37.843Z,60.12
2022-12-31T14:04:12.842Z,60.35
2022-12-31T14:07:00.165Z,60.43
2022-12-31T14:09:30.606Z,60.68
2022-12-31T14:12:34.768Z,60.50
2022-12-31T14:15:29.069Z,61.47
2022-12-31T14:18:01.721Z,61.14
2022-12-31T14:20:32.638Z,61.04
2022-12-31T14:23:26.096Z,61.71
2022-12-31T14:25:55.366Z,61.58
2022-12-31T14:28:30.404Z,61.31
2022-12-31T14:31:22.790Z,61.92
2022-12-31T14:34:07.923Z,62.05
2022-12-31T14:37:00.064Z,62.38
2022-12-31T14:39:59.284Z,62.56
2022-12-31T14:42:51.019Z,63.54
2022-12-31T14:45:31.005Z,62.90
2022-12-31T14:48:45.148Z,62.99
2022-12-31T14:51:13.113Z,62.90
2022-12-31T14:53:54.389Z,62.93
2022-12-31T14:56:45.285Z,63.12
2022-12-31T14:59:30.839Z,63.12
2022-12-31T15:01:59.166Z,62.81
2022-12-31T15:04:32.072Z,63.55
2022-12-31T15:07:34.300Z,64.08
2022-12-31T15:10:15.320Z,63.71
2022-12-31T15:13:13.044Z,63.58
2022-12-31T15:15:56.914Z,64.14
2022-12-31T15:18:42.892Z,65.14
2022-12-31T15:21:14.919Z,64.76
2022-12-31T15:23:43.863Z,64.36
2022-12-31T15:26:22.819Z,64.55
2022-12-31T15:28:59.647Z,64.68
2022-12-31T15:31:27.312Z,64.58
2022-12-31T15:33:53.929Z,65.13
2022-12-31T15:36:23.542Z,65.31
2022-12-31T15:38:51.138Z,65.25
2022-12-31T15:41:18.940Z,65.69
2022-12-31T15:43:51.707Z,65.73
2022-12-31T15:46:25.598Z,65.84
2022-12-31T15:49:04.182Z,66.01
2022-12-31T15:51:43.827Z,66.04
2022-12-31T15:54:24.769Z,66.39
2022-12-31T15:56:53.170Z,66.31
2022-12-31T15:59:21.577Z,66.48
2022-12-31T16:01:48.745Z,66.68
2022-12-31T16:04:24.273Z,66.68
2022-12-31T16:06:52.416Z,66.99
2022-12-31T16:09:29.028Z,67.12
2022-12-31T16:11:57.843Z,67.00
2022-12-31T16:14:33.317Z,67.54
2022-12-31T16:17:01.096Z,67.50
2022-12-31T16:19:35.011Z,67.73
2022-12-31T16:22:08.370Z,68.20
2022-12-31T16:24:48.941Z,68.23
2022-12-31T16:27:24.112Z,68.10
2022-12-31T16:29:58.670Z,68.46
2022-12-31T16:32:25.323Z,68.33
2022-12-31T16:34:54.845Z,68.48
2022-12-31T16:37:23.612Z,68.36
2022-12-31T16:39:56.292Z,68.72
2022-12-31T16:42:28.058Z,68.63
2022-12-31T16:44:57.328Z,69.36
2022-12-31T16:47:34.892Z,69.73
2022-12-31T16:50:04.596Z,69.46
2022-12-31T16:52:38.907Z,70.76
2022-12-31T16:55:15.061Z,69.98
2022-12-31T16:57:44.194Z,69.88
2022-12-31T17:00:18.015Z,70.01
2022-12-31T17:02:50.675Z,70.63
2022-12-31T17:05:26.611Z,70.98
2022-12-31T17:07:53.854Z,70.68
2022-12-31T17:10:22.651Z,70.53
2022-12-31T17:13:28.317Z,70.74
2022-12-31T17:15:45.489Z,70.66
2022-12-31T17:18:20.259Z,70.51
2022-12-31T17:20:48.824Z,70.52
2022-12-31T17:23:31.804Z,70.86
2022-12-31T17:26:01.103Z,70.49
2022-12-31T17:28:33.028Z,70.25
2022-12-31T17:31:48.760Z,70.44
2022-12-31T17:34:15.394Z,70.36
2022-12-31T17:36:57.456Z,70.35
2022-12-31T17:39:25.351Z,70.28
2022-12-31T17:41:56.355Z,70.37
2022-12-31T17:44:28.423Z,70.38
2022-12-31T17:46:55.337Z,70.87
2022-12-31T17:49:30.790Z,70.91
2022-12-31T17:51:57.663Z,70.82
2022-12-31T17:54:24.324Z,70.86
2022-12-31T17:56:52.593Z,71.27
2022-12-31T17:59:25.244Z,71.45
2022-12-31T18:01:52.220Z,71.22
2022-12-31T18:04:20.854Z,71.27
2022-12-31T18:06:47.475Z,71.54
2022-12-31T18:09:15.966Z,71.72
2022-12-31T18:11:42.898Z,71.52
2022-12-31T18:14:14.010Z,71.94
2022-12-31T18:16:40.855Z,71.86
2022-12-31T18:19:37.934Z,71.73
2022-12-31T18:22:02.204Z,71.44
2022-12-31T18:24:28.821Z,71.51
2022-12-31T18:26:55.595Z,71.90
2022-12-31T18:29:22.750Z,71.76
2022-12-31T18:31:50.769Z,71.96
2022-12-31T18:34:18.744Z,71.81
2022-12-31T18:36:46.104Z,71.58
2022-12-31T18:39:13.218Z,71.80
2022-12-31T18:41:49.459Z,72.15
2022-12-31T18:44:16.677Z,72.45
2022-12-31T18:46:43.481Z,71.99
2022-12-31T18:49:10.184Z,72.08
2022-12-31T18:51:36.970Z,72.58
2022-12-31T18:54:04.893Z,72.46
2022-12-31T18:56:31.703Z,72.24
2022-12-31T18:58:59.823Z,72.24
2022-12-31T19:01:29.672Z,72.03
2022-12-31T19:04:02.804Z,72.78
2022-12-31T19:06:29.979Z,72.42
2022-12-31T19:08:56.799Z,72.24
2022-12-31T19:11:24.041Z,72.09
2022-12-31T19:13:50.801Z,72.55
2022-12-31T19:16:18.067Z,72.66
2022-12-31T19:18:45.186Z,72.66
2022-12-31T19:21:18.638Z,72.62
2022-12-31T19:23:45.760Z,72.36
2022-12-31T19:26:18.748Z,72.71
2022-12-31T19:28:46.731Z,72.37
2022-12-31T19:31:14.032Z,72.08
2022-12-31T19:33:41.037Z,72.18
2022-12-31T19:36:14.477Z,72.41
2022-12-31T19:38:41.156Z,72.43
2022-12-31T19:41:15.138Z,72.09
2022-12-31T19:43:41.880Z,72.02
2022-12-31T19:46:13.570Z,71.82
2022-12-31T19:48:40.513Z,71.78
2022-12-31T19:51:11.985Z,71.73
2022-12-31T19:53:44.557Z,71.71
2022-12-31T19:56:14.046Z,71.50
2022-12-31T19:58:40.841Z,71.58
2022-12-31T20:01:09.427Z,71.37
2022-12-31T20:03:36.225Z,71.34
2022-12-31T20:06:10.687Z,71.51
2022-12-31T20:08:39.454Z,71.60
2022-12-31T20:11:18.683Z,72.17
2022-12-31T20:13:47.287Z,71.86
2022-12-31T20:16:17.240Z,71.94
2022-12-31T20:18:45.812Z,71.90
2022-12-31T20:21:28.814Z,71.76
2022-12-31T20:23:55.865Z,71.75
2022-12-31T20:26:24.310Z,71.71
2022-12-31T20:28:51.148Z,71.80
2022-12-31T20:31:20.459Z,71.96
2022-12-31T20:33:47.189Z,71.96
2022-12-31T20:36:15.981Z,72.06
2022-12-31T20:38:42.641Z,72.02
2022-12-31T20:41:12.941Z,71.81
2022-12-31T20:43:40.039Z,71.64
2022-12-31T20:46:16.239Z,71.49
2022-12-31T20:48:44.198Z,71.64
2022-12-31T20:51:11.633Z,71.60
2022-12-31T20:53:48.408Z,71.76
2022-12-31T20:56:15.784Z,71.76
2022-12-31T20:58:42.611Z,71.82
2022-12-31T21:01:10.431Z,71.99
2022-12-31T21:06:27.455Z,71.72
2022-12-31T21:08:55.867Z,71.79
2022-12-31T21:11:48.819Z,72.11
2022-12-31T21:14:15.551Z,71.96
2022-12-31T21:16:42.248Z,71.92
2022-12-31T21:19:10.112Z,72.15
2022-12-31T21:21:36.838Z,72.16
2022-12-31T21:24:03.883Z,72.23
2022-12-31T21:26:30.806Z,72.23
2022-12-31T21:28:57.563Z,72.58
2022-12-31T21:31:24.286Z,72.58
2022-12-31T21:33:51.022Z,73.12
2022-12-31T21:36:17.831Z,73.24
2022-12-31T21:38:45.028Z,73.30
2022-12-31T21:41:34.038Z,73.26
2022-12-31T21:44:02.298Z,73.36
2022-12-31T21:46:29.403Z,72.99
2022-12-31T21:49:00.431Z,73.11
2022-12-31T21:51:28.013Z,73.17
2022-12-31T21:53:55.114Z,73.00
2022-12-31T21:56:22.646Z,73.17
2022-12-31T21:59:13.689Z,73.33
2022-12-31T22:01:59.128Z,73.29
2022-12-31T22:07:12.796Z,72.67
2022-12-31T22:09:39.484Z,72.70
2022-12-31T22:12:06.339Z,72.61
2022-12-31T22:14:32.939Z,72.55
2022-12-31T22:16:59.557Z,72.47
2022-12-31T22:19:26.244Z,72.53
2022-12-31T22:21:52.873Z,72.44
2022-12-31T22:24:19.503Z,72.54
2022-12-31T22:26:46.961Z,73.01
2022-12-31T22:29:13.772Z,73.10
2022-12-31T22:31:40.405Z,72.91
2022-12-31T22:34:07.121Z,73.32
2022-12-31T22:36:33.730Z,73.23
2022-12-31T22:39:00.351Z,73.23
2022-12-31T22:41:28.159Z,73.09
2022-12-31T22:44:03.176Z,73.20
2022-12-31T22:46:31.489Z,73.07
2022-12-31T22:48:59.695Z,72.81
2022-12-31T22:51:57.073Z,72.74
2022-12-31T22:54:14.005Z,73.28
2022-12-31T22:56:40.967Z,73.19
2022-12-31T22:59:07.621Z,73.07
2022-12-31T23:01:34.653Z,72.90
2022-12-31T23:04:01.521Z,73.03
2022-12-31T23:06:29.161Z,72.78
2022-12-31T23:09:14.709Z,72.62
2022-12-31T23:11:43.214Z,72.76
2022-12-31T23:14:33.893Z,72.62
2022-12-31T23:17:30.504Z,73.01
2022-12-31T23:20:18.594Z,73.39
2022-12-31T23:23:04.865Z,73.10
2022-12-31T23:25:37.767Z,73.12
2022-12-31T23:28:06.079Z,73.10
2022-12-31T23:30:33.007Z,72.86
2022-12-31T23:32:59.962Z,73.05
2022-12-31T23:35:26.601Z,73.23
2022-12-31T23:37:53.265Z,73.36
2022-12-31T23:40:21.841Z,73.37
2022-12-31T23:42:50.064Z,73.06
2022-12-31T23:45:16.736Z,73.05
2022-12-31T23:47:43.424Z,73.16
2022-12-31T23:50:10.253Z,73.06
2022-12-31T23:52:36.865Z,73.15
2022-12-31T23:55:03.854Z,73.14
2022-12-31T23:57:30.662Z,73.08
2022-12-31T23:59:57.371Z,73.15
